createdAt,value
2023-04-11T00:00:15.841Z,14.00
2023-04-11T00:02:42.847Z,14.00
2023-04-11T00:05:09.901Z,14.00
2023-04-11T00:07:36.662Z,14.00
2023-04-11T00:10:03.650Z,14.00
2023-04-11T00:12:30.424Z,14.10
2023-04-11T00:14:57.106Z,14.10
2023-04-11T00:17:23.859Z,14.10
2023-04-11T00:19:53.275Z,14.10
2023-04-11T00:22:20.001Z,14.10
2023-04-11T00:24:46.728Z,14.10
2023-04-11T00:27:13.404Z,14.10
2023-04-11T00:29:40.739Z,14.10
2023-04-11T00:32:07.789Z,14.10
2023-04-11T00:34:34.537Z,14.10
2023-04-11T00:37:01.590Z,14.10
2023-04-11T00:39:30.299Z,14.10
2023-04-11T00:42:05.278Z,14.10
2023-04-11T00:44:32.148Z,14.10
2023-04-11T00:47:00.738Z,14.10
2023-04-11T00:49:28.004Z,14.10
2023-04-11T00:51:54.862Z,14.10
2023-04-11T00:54:21.958Z,14.10
2023-04-11T00:56:48.664Z,14.10
2023-04-11T00:59:15.728Z,14.10
2023-04-11T01:01:43.309Z,14.10
2023-04-11T01:04:10.541Z,14.10
2023-04-11T01:06:37.594Z,14.10
2023-04-11T01:09:04.831Z,14.10
2023-04-11T01:11:32.551Z,14.00
2023-04-11T01:13:59.595Z,14.00
2023-04-11T01:16:27.054Z,14.00
2023-04-11T01:18:54.114Z,14.00
2023-04-11T01:21:22.257Z,14.00
2023-04-11T01:23:52.550Z,14.00
2023-04-11T01:26:19.536Z,14.00
2023-04-11T01:28:46.332Z,14.00
2023-04-11T01:31:13.865Z,14.00
2023-04-11T01:33:40.771Z,14.00
2023-04-11T01:36:08.225Z,14.00
2023-04-11T01:38:35.245Z,13.90
2023-04-11T01:41:02.775Z,13.90
2023-04-11T01:43:29.655Z,13.90
2023-04-11T01:45:56.723Z,13.90
2023-04-11T01:48:23.665Z,13.90
2023-04-11T01:50:51.864Z,13.80
2023-04-11T01:53:18.590Z,13.80
2023-04-11T01:55:45.518Z,13.70
2023-04-11T01:58:12.256Z,13.70
2023-04-11T02:00:39.622Z,13.60
2023-04-11T02:03:06.521Z,13.50
2023-04-11T02:05:36.159Z,13.50
2023-04-11T02:08:03.503Z,13.40
2023-04-11T02:10:30.184Z,13.30
2023-04-11T02:12:56.944Z,13.20
2023-04-11T02:15:23.837Z,13.10
2023-04-11T02:17:53.892Z,13.00
2023-04-11T02:20:23.999Z,12.90
2023-04-11T02:22:50.706Z,12.80
2023-04-11T02:25:17.613Z,12.70
2023-04-11T02:27:44.335Z,12.60
2023-04-11T02:30:11.240Z,12.40
2023-04-11T02:32:38.370Z,12.30
2023-04-11T02:35:07.588Z,12.10
2023-04-11T02:37:34.881Z,11.90
2023-04-11T02:40:04.424Z,11.80
2023-04-11T02:42:31.115Z,11.70
2023-04-11T02:44:59.098Z,11.70
2023-04-11T02:47:28.234Z,11.60
2023-04-11T02:49:59.575Z,11.60
2023-04-11T02:52:33.469Z,11.50
2023-04-11T02:55:00.414Z,11.40
2023-04-11T02:57:27.713Z,11.40
2023-04-11T02:59:55.618Z,11.40
2023-04-11T03:02:30.078Z,11.30
2023-04-11T03:04:57.872Z,11.20
2023-04-11T03:07:24.833Z,11.10
2023-04-11T03:09:52.958Z,11.20
2023-04-11T03:12:20.202Z,11.10
2023-04-11T03:14:54.261Z,11.10
2023-04-11T03:17:21.308Z,11.10
2023-04-11T03:19:48.168Z,11.20
2023-04-11T03:22:15.473Z,11.20
2023-04-11T03:24:42.688Z,11.10
2023-04-11T03:27:09.611Z,11.20
2023-04-11T03:29:39.667Z,11.10
2023-04-11T03:32:13.317Z,11.10
2023-04-11T03:34:40.273Z,11.20
2023-04-11T03:37:10.177Z,11.10
2023-04-11T03:39:38.561Z,11.10
2023-04-11T03:42:05.345Z,11.10
2023-04-11T03:44:33.046Z,11.10
2023-04-11T03:47:00.897Z,11.10
2023-04-11T03:49:35.319Z,11.10
2023-04-11T03:52:02.037Z,11.10
2023-04-11T03:54:29.209Z,11.20
2023-04-11T03:56:57.149Z,11.20
2023-04-11T03:59:25.421Z,11.20
2023-04-11T04:01:57.715Z,11.20
2023-04-11T04:04:24.792Z,11.20
2023-04-11T04:07:04.174Z,11.20
2023-04-11T04:09:37.149Z,11.20
2023-04-11T04:12:04.741Z,11.20
2023-04-11T04:14:56.725Z,11.20
2023-04-11T04:17:23.877Z,11.10
2023-04-11T04:19:51.580Z,11.00
2023-04-11T04:22:18.690Z,11.00
2023-04-11T04:24:52.487Z,11.00
2023-04-11T04:27:24.966Z,10.90
2023-04-11T04:29:56.498Z,10.80
2023-04-11T04:32:35.919Z,10.80
2023-04-11T04:35:10.191Z,10.70
2023-04-11T04:37:39.538Z,10.60
2023-04-11T04:40:24.322Z,10.50
2023-04-11T04:42:58.583Z,10.40
2023-04-11T04:45:36.305Z,10.40
2023-04-11T04:48:03.430Z,10.40
2023-04-11T04:50:30.322Z,10.40
2023-04-11T04:52:57.240Z,10.30
2023-04-11T04:55:23.902Z,10.30
2023-04-11T04:57:51.562Z,10.30
2023-04-11T05:00:21.808Z,10.30
2023-04-11T05:02:50.543Z,10.20
2023-04-11T05:05:17.380Z,10.10
2023-04-11T05:07:45.190Z,10.10
2023-04-11T05:10:11.950Z,10.00
2023-04-11T05:12:40.512Z,10.00
2023-04-11T05:15:11.775Z,9.80
2023-04-11T05:17:40.516Z,9.70
2023-04-11T05:20:08.961Z,9.60
2023-04-11T05:22:38.012Z,9.50
2023-04-11T05:25:16.049Z,9.40
2023-04-11T05:27:43.540Z,9.40
2023-04-11T05:30:11.039Z,9.30
2023-04-11T05:32:39.269Z,9.20
2023-04-11T05:35:07.110Z,9.20
2023-04-11T05:37:43.309Z,9.10
2023-04-11T05:40:10.580Z,9.20
2023-04-11T05:42:37.765Z,9.20
2023-04-11T05:45:04.768Z,9.20
2023-04-11T05:47:32.154Z,9.30
2023-04-11T05:49:59.037Z,9.30
2023-04-11T05:52:25.724Z,9.30
2023-04-11T05:54:52.695Z,9.30
2023-04-11T05:57:19.488Z,9.30
2023-04-11T05:59:49.783Z,9.30
2023-04-11T06:02:20.773Z,9.40
2023-04-11T06:05:01.000Z,9.40
2023-04-11T06:07:43.621Z,9.40
2023-04-11T06:10:20.698Z,9.40
2023-04-11T06:12:58.031Z,9.50
2023-04-11T06:15:59.231Z,9.50
2023-04-11T06:18:54.756Z,9.50
2023-04-11T06:21:21.670Z,9.50
2023-04-11T06:23:50.793Z,9.50
2023-04-11T06:26:20.602Z,9.50
2023-04-11T06:28:47.249Z,9.50
2023-04-11T06:31:21.614Z,9.60
2023-04-11T06:33:48.408Z,9.60
2023-04-11T06:36:15.201Z,9.60
2023-04-11T06:38:45.309Z,9.60
2023-04-11T06:41:12.104Z,9.60
2023-04-11T06:43:47.880Z,9.60
2023-04-11T06:46:14.635Z,9.60
2023-04-11T06:48:43.975Z,9.60
2023-04-11T06:51:10.941Z,9.60
2023-04-11T06:53:37.639Z,9.60
2023-04-11T06:56:07.700Z,9.60
2023-04-11T06:58:34.396Z,9.60
2023-04-11T07:01:01.084Z,9.60
2023-04-11T07:03:55.423Z,9.60
2023-04-11T07:06:23.168Z,9.60
2023-04-11T07:08:58.192Z,9.60
2023-04-11T07:11:24.850Z,9.70
2023-04-11T07:13:57.576Z,9.70
2023-04-11T07:16:25.455Z,9.70
2023-04-11T07:18:58.936Z,9.70
2023-04-11T07:21:27.380Z,9.70
2023-04-11T07:23:55.113Z,9.70
2023-04-11T07:26:24.057Z,9.70
2023-04-11T07:28:51.407Z,9.70
2023-04-11T07:31:24.986Z,9.70
2023-04-11T07:33:51.955Z,9.70
2023-04-11T07:36:24.437Z,9.70
2023-04-11T07:38:52.373Z,9.70
2023-04-11T07:41:19.244Z,9.80
2023-04-11T07:43:46.910Z,9.80
2023-04-11T07:46:15.066Z,9.90
2023-04-11T07:48:42.601Z,10.00
2023-04-11T07:51:09.544Z,10.10
2023-04-11T07:53:36.406Z,10.10
2023-04-11T07:56:04.860Z,10.20
2023-04-11T07:58:31.986Z,10.30
2023-04-11T08:00:58.880Z,10.30
2023-04-11T08:03:26.958Z,10.40
2023-04-11T08:05:58.530Z,10.50
2023-04-11T08:08:28.900Z,10.50
2023-04-11T08:10:57.831Z,10.60
2023-04-11T08:13:24.510Z,10.60
2023-04-11T08:15:51.267Z,10.60
2023-04-11T08:18:21.691Z,10.60
2023-04-11T08:20:49.002Z,10.70
2023-04-11T08:25:51.344Z,10.60
2023-04-11T08:28:21.132Z,10.60
2023-04-11T08:30:48.029Z,10.60
2023-04-11T08:33:15.655Z,10.50
2023-04-11T08:35:46.942Z,10.50
2023-04-11T08:38:13.990Z,10.50
2023-04-11T08:40:41.138Z,10.50
2023-04-11T08:43:12.856Z,10.60
2023-04-11T08:45:41.094Z,10.60
2023-04-11T08:48:09.552Z,10.60
2023-04-11T08:50:36.422Z,10.60
2023-04-11T08:53:03.921Z,10.60
2023-04-11T08:55:31.218Z,10.70
2023-04-11T08:58:01.609Z,10.70
2023-04-11T09:00:29.037Z,10.80
2023-04-11T09:03:00.578Z,10.90
2023-04-11T09:05:38.413Z,10.90
2023-04-11T09:08:17.694Z,11.00
2023-04-11T09:10:46.963Z,11.10
2023-04-11T09:13:25.638Z,11.00
2023-04-11T09:16:12.730Z,11.00
2023-04-11T09:18:41.549Z,11.00
2023-04-11T09:21:10.720Z,11.00
2023-04-11T09:23:38.165Z,11.00
2023-04-11T09:26:29.372Z,11.00
2023-04-11T09:28:56.269Z,11.10
2023-04-11T09:31:49.209Z,11.10
2023-04-11T09:34:31.630Z,11.20
2023-04-11T09:36:58.478Z,11.20
2023-04-11T09:39:28.422Z,11.30
2023-04-11T09:42:26.872Z,11.20
2023-04-11T09:45:21.821Z,11.20
2023-04-11T09:48:08.221Z,11.20
2023-04-11T09:54:06.077Z,11.20
2023-04-11T09:57:00.915Z,11.20
2023-04-11T09:59:28.564Z,11.30
2023-04-11T10:01:59.667Z,11.30
2023-04-11T10:04:28.799Z,11.30
2023-04-11T10:07:14.105Z,11.30
2023-04-11T10:09:45.350Z,11.30
2023-04-11T10:12:12.115Z,11.30
2023-04-11T10:14:38.795Z,11.40
2023-04-11T10:17:22.637Z,11.50
2023-04-11T10:19:54.654Z,11.50
2023-04-11T10:22:41.034Z,11.50
2023-04-11T10:25:21.742Z,11.60
2023-04-11T10:27:52.046Z,11.70
2023-04-11T10:30:18.988Z,11.70
2023-04-11T10:33:15.918Z,11.70
2023-04-11T10:35:59.663Z,11.70
2023-04-11T10:38:41.800Z,11.70
2023-04-11T10:41:19.532Z,11.80
2023-04-11T10:43:47.440Z,11.80
2023-04-11T10:46:31.996Z,11.90
2023-04-11T10:49:00.668Z,11.90
2023-04-11T10:51:29.617Z,11.90
2023-04-11T10:54:02.445Z,11.90
2023-04-11T10:56:48.755Z,11.90
2023-04-11T10:59:34.425Z,11.90
2023-04-11T11:02:02.501Z,11.90
2023-04-11T11:04:36.992Z,11.80
2023-04-11T11:07:06.266Z,11.80
2023-04-11T11:09:35.485Z,11.80
2023-04-11T11:12:20.513Z,11.80
2023-04-11T11:14:47.590Z,11.80
2023-04-11T11:17:17.234Z,11.80
2023-04-11T11:19:58.144Z,11.80
2023-04-11T11:22:28.576Z,11.90
2023-04-11T11:25:06.818Z,11.90
2023-04-11T11:27:43.841Z,11.90
2023-04-11T11:30:21.229Z,12.00
2023-04-11T11:32:47.918Z,12.10
2023-04-11T11:35:14.775Z,12.10
2023-04-11T11:37:41.898Z,12.10
2023-04-11T11:40:13.052Z,12.10
2023-04-11T11:42:43.291Z,12.10
2023-04-11T11:45:20.893Z,12.10
2023-04-11T11:47:49.471Z,12.10
2023-04-11T11:50:26.793Z,12.10
2023-04-11T11:52:54.305Z,12.20
2023-04-11T11:55:23.573Z,12.10
2023-04-11T11:57:50.560Z,12.20
2023-04-11T12:00:28.307Z,12.20
2023-04-11T12:02:56.975Z,12.20
2023-04-11T12:05:32.959Z,12.20
2023-04-11T12:08:03.974Z,12.20
2023-04-11T12:10:46.266Z,12.30
2023-04-11T12:13:14.316Z,12.30
2023-04-11T12:15:43.353Z,12.30
2023-04-11T12:18:10.184Z,12.30
2023-04-11T12:20:37.054Z,12.40
2023-04-11T12:23:04.259Z,12.50
2023-04-11T12:25:31.802Z,12.50
2023-04-11T12:28:07.114Z,12.60
2023-04-11T12:30:33.862Z,12.60
2023-04-11T12:33:12.243Z,12.60
2023-04-11T12:35:48.003Z,12.70
2023-04-11T12:38:50.017Z,12.70
2023-04-11T12:41:38.593Z,12.70
2023-04-11T12:44:07.583Z,12.70
2023-04-11T12:47:34.220Z,12.70
2023-04-11T12:50:01.525Z,12.80
2023-04-11T12:52:32.314Z,12.80
2023-04-11T12:54:59.965Z,12.90
2023-04-11T12:57:26.800Z,12.80
2023-04-11T12:59:56.350Z,12.80
2023-04-11T13:02:23.758Z,12.80
2023-04-11T13:04:55.928Z,12.90
2023-04-11T13:07:22.741Z,12.90
2023-04-11T13:09:49.820Z,12.90
2023-04-11T13:12:18.760Z,12.90
2023-04-11T13:14:45.516Z,12.90
2023-04-11T13:17:12.150Z,12.90
2023-04-11T13:19:43.234Z,12.80
2023-04-11T13:22:09.925Z,12.80
2023-04-11T13:24:36.636Z,12.80
2023-04-11T13:27:04.537Z,12.80
2023-04-11T13:29:34.172Z,12.90
2023-04-11T13:32:15.426Z,12.80
2023-04-11T13:34:42.567Z,12.80
2023-04-11T13:37:12.460Z,12.70
2023-04-11T13:39:39.148Z,12.70
2023-04-11T13:42:05.868Z,12.60
2023-04-11T13:44:32.650Z,12.60
2023-04-11T13:47:02.843Z,12.60
2023-04-11T13:49:39.464Z,12.60
2023-04-11T13:52:59.805Z,12.60
2023-04-11T13:55:26.628Z,12.60
2023-04-11T13:58:01.473Z,12.70
2023-04-11T14:00:28.284Z,12.80
2023-04-11T14:02:57.339Z,12.90
2023-04-11T14:05:26.794Z,13.00
2023-04-11T14:07:53.623Z,13.00
2023-04-11T14:10:23.753Z,13.10
2023-04-11T14:12:50.527Z,13.10
2023-04-11T14:15:17.280Z,13.10
2023-04-11T14:17:47.637Z,13.10
2023-04-11T14:20:15.388Z,13.10
2023-04-11T14:22:57.992Z,13.10
2023-04-11T14:25:30.276Z,13.10
2023-04-11T14:27:57.129Z,13.20
2023-04-11T14:30:23.788Z,13.20
2023-04-11T14:32:51.003Z,13.20
2023-04-11T14:35:17.733Z,13.30
2023-04-11T14:37:44.965Z,13.30
2023-04-11T14:40:14.279Z,13.20
2023-04-11T14:42:41.079Z,13.20
2023-04-11T14:45:08.272Z,13.20
2023-04-11T14:47:35.097Z,13.20
2023-04-11T14:50:01.887Z,13.30
2023-04-11T14:52:28.568Z,13.50
2023-04-11T14:55:03.493Z,13.60
2023-04-11T14:57:51.653Z,13.70
2023-04-11T15:00:22.372Z,13.70
2023-04-11T15:02:54.168Z,13.70
2023-04-11T15:05:24.997Z,13.60
2023-04-11T15:07:53.004Z,13.50
2023-04-11T15:10:24.161Z,13.40
2023-04-11T15:12:53.278Z,13.30
2023-04-11T15:15:20.103Z,13.30
2023-04-11T15:18:29.185Z,13.30
2023-04-11T15:20:57.472Z,13.30
2023-04-11T15:23:24.646Z,13.50
2023-04-11T15:25:56.725Z,13.50
2023-04-11T15:28:24.721Z,13.50
2023-04-11T15:30:59.201Z,13.60
2023-04-11T15:33:27.667Z,13.80
2023-04-11T15:36:03.271Z,13.90
2023-04-11T15:38:30.030Z,13.90
2023-04-11T15:41:00.013Z,13.90
2023-04-11T15:43:27.378Z,14.00
2023-04-11T15:45:54.718Z,14.10
2023-04-11T15:48:26.793Z,14.10
2023-04-11T15:50:53.450Z,14.10
2023-04-11T15:53:24.592Z,14.20
2023-04-11T15:55:54.058Z,14.10
2023-04-11T15:58:27.713Z,14.00
2023-04-11T16:00:57.062Z,13.90
2023-04-11T16:06:34.394Z,13.60
2023-04-11T16:09:13.970Z,13.50
2023-04-11T16:11:41.132Z,13.50
2023-04-11T16:14:07.954Z,13.50
2023-04-11T16:16:38.055Z,13.50
2023-04-11T16:21:57.126Z,13.40
2023-04-11T16:24:29.901Z,13.40
2023-04-11T16:27:22.277Z,13.50
2023-04-11T16:29:49.115Z,13.70
2023-04-11T16:32:23.339Z,13.70
2023-04-11T16:35:04.498Z,13.70
2023-04-11T16:40:33.363Z,13.70
2023-04-11T16:43:05.812Z,13.70
2023-04-11T16:45:33.770Z,13.60
2023-04-11T16:48:09.479Z,13.50
2023-04-11T16:50:36.231Z,13.40
2023-04-11T16:53:07.863Z,13.30
2023-04-11T16:55:34.616Z,13.20
2023-04-11T16:58:02.068Z,13.10
2023-04-11T17:00:31.376Z,13.10
2023-04-11T17:02:58.727Z,13.00
2023-04-11T17:05:25.532Z,13.00
2023-04-11T17:07:55.426Z,13.00
2023-04-11T17:10:22.125Z,12.90
2023-04-11T17:12:48.807Z,12.90
2023-04-11T17:15:18.273Z,12.90
2023-04-11T17:17:45.266Z,12.90
2023-04-11T17:20:19.185Z,12.80
2023-04-11T17:22:46.914Z,12.80
2023-04-11T17:25:13.778Z,12.80
2023-04-11T17:27:41.968Z,12.70
2023-04-11T17:30:12.253Z,12.70
2023-04-11T17:32:50.172Z,12.70
2023-04-11T17:35:16.913Z,12.70
2023-04-11T17:37:47.132Z,12.60
2023-04-11T17:40:14.273Z,12.60
2023-04-11T17:42:41.472Z,12.60
2023-04-11T17:45:33.526Z,12.50
2023-04-11T17:48:01.228Z,12.50
2023-04-11T17:50:53.286Z,12.40
2023-04-11T17:53:20.396Z,12.30
2023-04-11T17:56:21.531Z,12.30
2023-04-11T17:58:56.362Z,12.30
2023-04-11T18:01:24.625Z,12.20
2023-04-11T18:04:28.151Z,12.20
2023-04-11T18:07:24.300Z,12.20
2023-04-11T18:09:51.414Z,12.10
2023-04-11T18:12:20.304Z,12.10
2023-04-11T18:15:06.994Z,12.00
2023-04-11T18:17:35.323Z,12.00
2023-04-11T18:20:08.869Z,11.90
2023-04-11T18:22:36.083Z,11.90
2023-04-11T18:25:06.993Z,11.90
2023-04-11T18:27:51.491Z,11.80
2023-04-11T18:30:18.315Z,11.80
2023-04-11T18:32:53.995Z,11.80
2023-04-11T18:35:21.616Z,11.80
2023-04-11T18:37:52.028Z,11.70
2023-04-11T18:40:19.260Z,11.70
2023-04-11T18:42:55.761Z,11.60
2023-04-11T18:45:23.389Z,11.60
2023-04-11T18:47:55.303Z,11.60
2023-04-11T18:50:22.791Z,11.60
2023-04-11T18:52:54.016Z,11.50
2023-04-11T18:55:22.616Z,11.50
2023-04-11T18:57:52.847Z,11.50
2023-04-11T19:00:23.850Z,11.40
2023-04-11T19:02:51.094Z,11.40
2023-04-11T19:05:19.250Z,11.40
2023-04-11T19:07:46.647Z,11.40
2023-04-11T19:10:14.205Z,11.40
2023-04-11T19:12:41.389Z,11.40
2023-04-11T19:15:09.208Z,11.30
2023-04-11T19:17:38.287Z,11.30
2023-04-11T19:20:12.893Z,11.20
2023-04-11T19:22:40.902Z,11.20
2023-04-11T19:25:10.839Z,11.20
2023-04-11T19:27:40.388Z,11.20
2023-04-11T19:30:11.058Z,11.20
2023-04-11T19:32:41.058Z,11.10
2023-04-11T19:35:10.514Z,11.10
2023-04-11T19:37:37.609Z,11.10
2023-04-11T19:40:10.865Z,11.10
2023-04-11T19:42:39.193Z,11.00
2023-04-11T19:45:07.310Z,11.00
2023-04-11T19:47:34.161Z,11.00
2023-04-11T19:50:01.344Z,10.90
2023-04-11T19:52:28.632Z,10.90
2023-04-11T19:54:55.833Z,10.90
2023-04-11T19:57:23.612Z,10.90
2023-04-11T19:59:50.820Z,10.90
2023-04-11T20:02:17.667Z,10.80
2023-04-11T20:04:45.793Z,10.80
2023-04-11T20:07:13.431Z,10.70
2023-04-11T20:09:40.219Z,10.80
2023-04-11T20:12:07.729Z,10.70
2023-04-11T20:14:34.639Z,10.70
2023-04-11T20:17:01.920Z,10.70
2023-04-11T20:19:29.724Z,10.70
2023-04-11T20:21:56.846Z,10.60
2023-04-11T20:24:24.149Z,10.60
2023-04-11T20:26:51.353Z,10.60
2023-04-11T20:29:18.447Z,10.60
2023-04-11T20:31:45.542Z,10.50
2023-04-11T20:34:12.633Z,10.60
2023-04-11T20:36:39.758Z,10.50
2023-04-11T20:39:07.065Z,10.50
2023-04-11T20:41:34.010Z,10.50
2023-04-11T20:44:00.948Z,10.40
2023-04-11T20:46:29.663Z,10.50
2023-04-11T20:48:56.711Z,10.40
2023-04-11T20:51:23.943Z,10.40
2023-04-11T20:53:50.869Z,10.40
2023-04-11T20:56:18.015Z,10.40
2023-04-11T20:58:46.004Z,10.40
2023-04-11T21:01:13.522Z,10.40
2023-04-11T21:03:42.415Z,10.40
2023-04-11T21:06:10.376Z,10.30
2023-04-11T21:08:37.322Z,10.40
2023-04-11T21:11:05.576Z,10.40
2023-04-11T21:13:32.427Z,10.40
2023-04-11T21:15:59.312Z,10.40
2023-04-11T21:18:26.079Z,10.40
2023-04-11T21:20:52.791Z,10.40
2023-04-11T21:23:19.563Z,10.40
2023-04-11T21:25:46.544Z,10.40
2023-04-11T21:28:13.366Z,10.30
2023-04-11T21:30:40.074Z,10.40
2023-04-11T21:33:06.872Z,10.30
2023-04-11T21:35:33.884Z,10.30
2023-04-11T21:38:00.837Z,10.30
2023-04-11T21:40:27.657Z,10.30
2023-04-11T21:42:55.501Z,10.30
2023-04-11T21:45:23.136Z,10.30
2023-04-11T21:47:51.321Z,10.30
2023-04-11T21:50:18.428Z,10.30
2023-04-11T21:52:46.333Z,10.30
2023-04-11T21:55:14.499Z,10.30
2023-04-11T21:57:41.690Z,10.20
2023-04-11T22:00:10.991Z,10.20
2023-04-11T22:02:41.222Z,10.20
2023-04-11T22:05:12.544Z,10.20
2023-04-11T22:07:48.868Z,10.30
2023-04-11T22:10:23.755Z,10.30
2023-04-11T22:12:53.621Z,10.30
2023-04-11T22:15:20.629Z,10.30
2023-04-11T22:17:50.487Z,10.20
2023-04-11T22:20:18.362Z,10.20
2023-04-11T22:22:45.304Z,10.20
2023-04-11T22:25:12.327Z,10.20
2023-04-11T22:27:39.132Z,10.20
2023-04-11T22:30:07.379Z,10.20
2023-04-11T22:32:34.495Z,10.20
2023-04-11T22:35:01.318Z,10.20
2023-04-11T22:37:28.103Z,10.20
2023-04-11T22:39:55.043Z,10.20
2023-04-11T22:42:21.833Z,10.30
2023-04-11T22:44:48.587Z,10.20
2023-04-11T22:47:16.506Z,10.20
2023-04-11T22:49:45.152Z,10.20
2023-04-11T22:52:15.565Z,10.20
2023-04-11T22:54:43.135Z,10.20
2023-04-11T22:57:10.249Z,10.20
2023-04-11T22:59:37.068Z,10.20
2023-04-11T23:02:03.985Z,10.20
2023-04-11T23:04:32.382Z,10.20
2023-04-11T23:06:59.606Z,10.20
2023-04-11T23:09:27.062Z,10.20
2023-04-11T23:11:53.776Z,10.20
2023-04-11T23:14:21.268Z,10.20
2023-04-11T23:16:48.734Z,10.20
2023-04-11T23:19:17.107Z,10.20
2023-04-11T23:21:44.662Z,10.20
2023-04-11T23:24:11.347Z,10.20
2023-04-11T23:26:38.103Z,10.30
2023-04-11T23:29:04.827Z,10.30
2023-04-11T23:31:32.486Z,10.30
2023-04-11T23:33:59.553Z,10.30
2023-04-11T23:36:27.498Z,10.30
2023-04-11T23:38:54.431Z,10.30
2023-04-11T23:41:21.364Z,10.30
2023-04-11T23:43:48.124Z,10.30
2023-04-11T23:46:17.016Z,10.30
2023-04-11T23:48:44.356Z,10.20
2023-04-11T23:51:11.348Z,10.20
2023-04-11T23:53:38.107Z,10.20
2023-04-11T23:56:05.226Z,10.20
2023-04-11T23:58:34.253Z,10.20
